Kami-ii, Japan

7:56 PM JST on January 17, 2018 (GMT +0900)
Hyakuri Aero | | Change Station

Elev 115 ft 36.18 °N, 140.42 °E | Updated 56 minutes ago

Light Rain Showers
Light Showers Rain Mist
46 °F
Feels Like 41 °F
N
12
Wind Variable Wind from NNE

Today
High -- | Low -- °F
--% Chance of Precip.
Yesterday
High -- | Low -- °F
Precip. -- in
Pressure 29.77 in
Visibility 2.5 miles
Clouds Scattered Clouds 300 ft
Overcast 500 ft
Windchill 41 °F
Dew Point 46 °F
Humidity 100%
Rainfall 0.00 in
Snow Depth Not available.
6:49 AM 4:48 PM
New Moon, 0% visible
METAR RJAH 171000Z 03010KT 4000 -SHRA BR SCT003 OVC005 08/08 Q1008
Pressure 29.77 in
Visibility 2.5 miles
Clouds Scattered Clouds 300 ft
Overcast 500 ft
Windchill 41 °F
Dew Point 46 °F
Humidity 100%
Rainfall 0.00 in
Snow Depth Not available.
6:49 AM 4:48 PM
New Moon, 0% visible
METAR RJAH 171000Z 03010KT 4000 -SHRA BR SCT003 OVC005 08/08 Q1008

Get Severe Weather Alerts

Thanks for signing up!

Be on the lookout for a verification email in your inbox.

You'll start receiving the daily forecast at 6 AM.

×

10-Day Weather Forecast

No radar image for this location.
×

Almanac

Astronomy

Jan. 17, 2018 Rise Set
Actual Time
Civil Twilight
Nautical Twilight
Astronomical Twilight
Moon
Length of Visible Light
Length of Day
Tomorrow will be .
, % of the Moon is Illuminated

Today's Extremes

Country Highs Country Lows

Community

WunderPhotos

Category 6

Welcome to Category 6. This is the collective home for Weather Underground's featured writeups by Dr. Jeff Masters (right), Bob Henson (left), Chris Burt, and other regular contributors.

Nearby

Air Quality

  Air Quality AQ Index Pollutant
Not available.

Snow Depth

Station Depth Elevation

Earthquake Activity

City Distance Mag. Time & Date
Minimum magnitude displayed is 2.5.

Coastal Water Temperatures

Place Temperature

Stations

Nearby Weather Stations

Station Location Temp. Windchill Dew Point Humidity Wind Precip. Elev Updated Type